createdAt,value
2022-09-14T00:01:26.561Z,20.13
2022-09-14T00:03:56.635Z,19.89
2022-09-14T00:06:25.534Z,19.93
2022-09-14T00:08:54.821Z,20.00
2022-09-14T00:11:24.016Z,19.94
2022-09-14T00:13:52.919Z,19.85
2022-09-14T00:16:22.605Z,20.00
2022-09-14T00:18:51.991Z,19.96
2022-09-14T00:21:20.383Z,20.21
2022-09-14T00:23:48.723Z,20.39
2022-09-14T00:26:18.391Z,20.52
2022-09-14T00:28:48.777Z,20.41
2022-09-14T00:31:18.183Z,20.31
2022-09-14T00:33:47.982Z,20.59
2022-09-14T00:36:17.488Z,20.44
2022-09-14T00:38:46.621Z,20.22
2022-09-14T00:41:16.395Z,20.45
2022-09-14T00:43:52.333Z,20.59
2022-09-14T00:46:20.724Z,20.55
2022-09-14T00:48:49.207Z,20.65
2022-09-14T00:51:18.746Z,20.63
2022-09-14T00:53:47.576Z,20.49
2022-09-14T00:56:15.843Z,20.29
2022-09-14T00:58:45.759Z,20.35
2022-09-14T01:01:14.400Z,20.49
2022-09-14T01:03:42.711Z,20.47
2022-09-14T01:06:23.220Z,19.97
2022-09-14T01:08:58.277Z,19.94
2022-09-14T01:11:32.628Z,20.00
2022-09-14T01:14:13.259Z,19.88
2022-09-14T01:16:51.950Z,19.83
2022-09-14T01:19:39.146Z,20.00
2022-09-14T01:22:11.521Z,20.08
2022-09-14T01:24:47.794Z,19.68
2022-09-14T01:27:20.935Z,19.93
2022-09-14T01:29:57.781Z,20.09
2022-09-14T01:32:28.916Z,20.25
2022-09-14T01:34:57.168Z,20.25
2022-09-14T01:37:40.404Z,20.08
2022-09-14T01:40:22.041Z,20.26
2022-09-14T01:42:52.988Z,20.36
2022-09-14T01:45:23.429Z,20.25
2022-09-14T01:47:54.654Z,20.16
2022-09-14T01:50:27.133Z,20.30
2022-09-14T01:53:00.925Z,20.27
2022-09-14T01:55:33.103Z,20.28
2022-09-14T01:58:04.643Z,20.18
2022-09-14T02:00:33.460Z,20.28
2022-09-14T02:03:07.103Z,20.31
2022-09-14T02:05:54.742Z,20.44
2022-09-14T02:08:25.436Z,20.42
2022-09-14T02:10:53.947Z,20.15
2022-09-14T02:13:22.347Z,20.11
2022-09-14T02:15:50.676Z,19.82
2022-09-14T02:18:19.542Z,19.88
2022-09-14T02:20:53.799Z,20.00
2022-09-14T02:23:22.362Z,19.79
2022-09-14T02:25:50.792Z,19.79
2022-09-14T02:28:19.141Z,19.69
2022-09-14T02:30:53.647Z,19.86
2022-09-14T02:33:31.298Z,19.95
2022-09-14T02:36:04.534Z,20.14
2022-09-14T02:38:32.775Z,20.39
2022-09-14T02:41:05.880Z,20.34
2022-09-14T02:43:46.344Z,20.25
2022-09-14T02:46:14.668Z,20.21
2022-09-14T02:48:49.012Z,19.99
2022-09-14T02:51:25.015Z,19.96
2022-09-14T02:54:13.409Z,19.97
2022-09-14T02:56:41.725Z,19.80
2022-09-14T02:59:09.992Z,19.79
2022-09-14T03:01:38.372Z,19.73
2022-09-14T03:04:06.661Z,19.62
2022-09-14T03:06:34.951Z,19.74
2022-09-14T03:09:03.283Z,19.73
2022-09-14T03:11:31.577Z,19.65
2022-09-14T03:13:59.859Z,19.64
2022-09-14T03:16:28.176Z,19.80
2022-09-14T03:18:56.476Z,19.81
2022-09-14T03:21:24.760Z,19.72
2022-09-14T03:23:55.111Z,19.68
2022-09-14T03:26:24.290Z,19.63
2022-09-14T03:28:53.755Z,19.63
2022-09-14T03:31:22.210Z,19.68
2022-09-14T03:33:55.124Z,19.46
2022-09-14T03:36:24.558Z,19.62
2022-09-14T03:38:55.102Z,19.46
2022-09-14T03:41:23.760Z,19.41
2022-09-14T03:43:52.301Z,19.52
2022-09-14T03:46:21.666Z,19.50
2022-09-14T03:48:50.532Z,19.61
2022-09-14T03:51:19.039Z,19.35
2022-09-14T03:53:47.631Z,19.12
2022-09-14T03:56:17.431Z,18.95
2022-09-14T03:58:46.454Z,18.94
2022-09-14T04:01:16.719Z,19.07
2022-09-14T04:03:45.652Z,19.06
2022-09-14T04:06:14.659Z,19.14
2022-09-14T04:08:43.731Z,19.24
2022-09-14T04:11:17.821Z,19.32
2022-09-14T04:13:46.470Z,19.35
2022-09-14T04:16:15.703Z,19.30
2022-09-14T04:18:44.546Z,19.33
2022-09-14T04:21:17.239Z,19.52
2022-09-14T04:24:10.552Z,19.57
2022-09-14T04:26:34.349Z,19.42
2022-09-14T04:29:02.638Z,19.24
2022-09-14T04:31:31.416Z,19.38
2022-09-14T04:33:59.724Z,19.19
2022-09-14T04:36:30.771Z,19.43
2022-09-14T04:39:01.530Z,19.40
2022-09-14T04:41:30.346Z,19.36
2022-09-14T04:43:59.198Z,19.26
2022-09-14T04:46:32.099Z,19.00
2022-09-14T04:49:00.503Z,19.03
2022-09-14T04:51:29.906Z,18.97
2022-09-14T04:54:01.802Z,18.95
2022-09-14T04:56:31.821Z,18.96
2022-09-14T04:59:02.011Z,19.01
2022-09-14T05:01:32.004Z,19.22
2022-09-14T05:04:00.289Z,19.18
2022-09-14T05:06:29.840Z,19.10
2022-09-14T05:08:59.954Z,19.11
2022-09-14T05:11:29.857Z,18.88
2022-09-14T05:13:59.000Z,18.68
2022-09-14T05:16:31.404Z,18.99
2022-09-14T05:19:03.605Z,19.03
2022-09-14T05:21:32.996Z,19.06
2022-09-14T05:24:02.705Z,18.94
2022-09-14T05:26:31.918Z,18.97
2022-09-14T05:29:01.175Z,19.00
2022-09-14T05:31:31.055Z,18.99
2022-09-14T05:33:59.498Z,18.88
2022-09-14T05:36:27.791Z,18.98
2022-09-14T05:38:57.851Z,19.03
2022-09-14T05:41:26.108Z,18.95
2022-09-14T05:43:54.380Z,19.06
2022-09-14T05:46:22.916Z,18.97
2022-09-14T05:48:51.656Z,18.88
2022-09-14T05:51:21.507Z,18.91
2022-09-14T05:53:50.800Z,18.86
2022-09-14T05:56:20.035Z,18.91
2022-09-14T05:58:48.693Z,18.95
2022-09-14T06:01:18.692Z,18.99
2022-09-14T06:03:48.053Z,18.92
2022-09-14T06:06:18.228Z,18.85
2022-09-14T06:08:50.118Z,18.80
2022-09-14T06:11:20.272Z,18.77
2022-09-14T06:13:49.631Z,18.82
2022-09-14T06:16:19.439Z,18.62
2022-09-14T06:18:48.235Z,18.53
2022-09-14T06:21:19.123Z,18.46
2022-09-14T06:23:48.019Z,18.47
2022-09-14T06:26:16.913Z,18.50
2022-09-14T06:28:45.201Z,18.36
2022-09-14T06:31:14.323Z,18.44
2022-09-14T06:33:43.727Z,18.41
2022-09-14T06:36:13.475Z,18.37
2022-09-14T06:38:42.247Z,18.09
2022-09-14T06:41:12.215Z,17.75
2022-09-14T06:43:41.663Z,17.97
2022-09-14T06:46:14.644Z,18.20
2022-09-14T06:48:54.241Z,18.15
2022-09-14T06:51:26.891Z,18.04
2022-09-14T06:53:56.460Z,18.21
2022-09-14T06:56:24.889Z,18.38
2022-09-14T06:58:53.396Z,18.51
2022-09-14T07:01:21.957Z,18.44
2022-09-14T07:03:52.308Z,18.12
2022-09-14T07:06:21.968Z,18.18
2022-09-14T07:08:51.073Z,18.24
2022-09-14T07:11:20.362Z,18.34
2022-09-14T07:13:48.716Z,18.49
2022-09-14T07:16:17.011Z,18.44
2022-09-14T07:18:45.322Z,18.34
2022-09-14T07:21:15.339Z,18.33
2022-09-14T07:23:45.827Z,18.50
2022-09-14T07:26:14.095Z,18.52
2022-09-14T07:28:43.434Z,18.42
2022-09-14T07:31:26.021Z,18.61
2022-09-14T07:33:55.459Z,18.69
2022-09-14T07:36:25.114Z,18.77
2022-09-14T07:38:53.800Z,18.88
2022-09-14T07:41:23.124Z,18.96
2022-09-14T07:43:52.208Z,18.96
2022-09-14T07:46:21.381Z,18.99
2022-09-14T07:48:54.260Z,19.05
2022-09-14T07:51:23.697Z,19.00
2022-09-14T07:53:52.116Z,18.89
2022-09-14T07:56:21.728Z,18.92
2022-09-14T07:58:54.884Z,19.09
2022-09-14T08:01:30.238Z,18.73
2022-09-14T08:04:05.356Z,18.81
2022-09-14T08:06:34.596Z,18.81
2022-09-14T08:09:05.871Z,18.93
2022-09-14T08:11:35.147Z,19.13
2022-09-14T08:14:11.455Z,18.94
2022-09-14T08:16:40.806Z,18.50
2022-09-14T08:19:13.767Z,18.69
2022-09-14T08:21:46.443Z,18.90
2022-09-14T08:24:17.552Z,18.92
2022-09-14T08:26:46.511Z,19.14
2022-09-14T08:29:15.727Z,19.33
2022-09-14T08:31:45.617Z,19.30
2022-09-14T08:34:15.288Z,19.10
2022-09-14T08:36:44.257Z,18.69
2022-09-14T08:39:13.876Z,18.59
2022-09-14T08:41:54.460Z,18.67
2022-09-14T08:44:25.927Z,18.36
2022-09-14T08:47:02.235Z,18.61
2022-09-14T08:49:38.779Z,18.94
2022-09-14T08:52:13.906Z,18.99
2022-09-14T08:54:42.294Z,18.64
2022-09-14T08:57:18.213Z,18.87
2022-09-14T08:59:46.449Z,19.02
2022-09-14T09:02:33.491Z,18.74
2022-09-14T09:05:20.789Z,18.56
2022-09-14T09:08:01.177Z,18.54
2022-09-14T09:10:30.117Z,18.43
2022-09-14T09:13:00.432Z,18.48
2022-09-14T09:15:32.012Z,18.33
2022-09-14T09:18:22.070Z,18.12
2022-09-14T09:21:13.878Z,18.17
2022-09-14T09:23:42.782Z,18.49
2022-09-14T09:26:27.544Z,18.37
2022-09-14T09:29:00.517Z,18.68
2022-09-14T09:31:47.376Z,18.78
2022-09-14T09:34:16.805Z,19.00
2022-09-14T09:36:49.350Z,19.13
2022-09-14T09:39:17.825Z,19.12
2022-09-14T09:41:58.539Z,18.74
2022-09-14T09:44:27.336Z,18.78
2022-09-14T09:46:56.931Z,19.00
2022-09-14T09:49:28.150Z,19.16
2022-09-14T09:51:56.697Z,19.24
2022-09-14T09:54:28.096Z,19.28
2022-09-14T09:56:57.779Z,19.35
2022-09-14T09:59:36.802Z,19.44
2022-09-14T10:02:20.574Z,19.48
2022-09-14T10:04:56.571Z,19.59
2022-09-14T10:07:25.611Z,19.67
2022-09-14T10:10:13.651Z,19.67
2022-09-14T10:12:49.714Z,19.75
2022-09-14T10:15:18.073Z,19.82
2022-09-14T10:17:57.153Z,19.79
2022-09-14T10:20:25.658Z,19.78
2022-09-14T10:22:53.907Z,19.71
2022-09-14T10:25:24.301Z,19.56
2022-09-14T10:27:56.056Z,19.61
2022-09-14T10:30:25.914Z,19.53
2022-09-14T10:32:54.682Z,19.64
2022-09-14T10:35:28.270Z,19.81
2022-09-14T10:38:04.671Z,19.68
2022-09-14T10:40:37.533Z,19.69
2022-09-14T10:43:08.807Z,19.55
2022-09-14T10:45:50.439Z,19.17
2022-09-14T10:48:36.867Z,19.26
2022-09-14T10:51:25.222Z,19.50
2022-09-14T10:54:06.459Z,19.57
2022-09-14T10:56:34.743Z,19.61
2022-09-14T10:59:09.059Z,19.44
2022-09-14T11:02:16.084Z,19.65
2022-09-14T11:04:53.567Z,19.80
2022-09-14T11:07:30.755Z,19.52
2022-09-14T11:10:18.100Z,19.42
2022-09-14T11:12:49.432Z,19.51
2022-09-14T11:15:31.115Z,19.50
2022-09-14T11:18:17.123Z,19.61
2022-09-14T11:20:45.407Z,19.63
2022-09-14T11:23:22.854Z,19.58
2022-09-14T11:25:57.256Z,19.70
2022-09-14T11:28:29.039Z,19.66
2022-09-14T11:31:00.475Z,19.77
2022-09-14T11:33:35.360Z,20.04
2022-09-14T11:36:16.604Z,20.16
2022-09-14T11:38:57.827Z,19.90
2022-09-14T11:41:32.443Z,19.78
2022-09-14T11:44:03.380Z,19.80
2022-09-14T11:46:34.559Z,19.85
2022-09-14T11:49:25.937Z,20.08
2022-09-14T11:52:04.905Z,20.21
2022-09-14T11:54:34.228Z,20.09
2022-09-14T11:57:03.419Z,19.87
2022-09-14T11:59:34.434Z,19.49
2022-09-14T12:02:21.466Z,19.66
2022-09-14T12:05:05.263Z,19.66
2022-09-14T12:07:39.819Z,19.83
2022-09-14T12:10:14.413Z,19.80
2022-09-14T12:12:42.632Z,19.73
2022-09-14T12:15:16.368Z,19.57
2022-09-14T12:17:45.276Z,19.44
2022-09-14T12:20:43.454Z,19.64
2022-09-14T12:23:30.275Z,19.31
2022-09-14T12:26:10.948Z,19.52
2022-09-14T12:28:48.342Z,19.36
2022-09-14T12:31:32.803Z,19.48
2022-09-14T12:34:15.554Z,19.53
2022-09-14T12:36:43.846Z,19.44
2022-09-14T12:39:28.796Z,19.55
2022-09-14T12:41:58.528Z,19.49
2022-09-14T12:44:42.879Z,19.10
2022-09-14T12:47:28.503Z,19.07
2022-09-14T12:49:58.679Z,18.64
2022-09-14T12:52:35.634Z,18.46
2022-09-14T12:55:26.754Z,18.69
2022-09-14T12:58:15.237Z,18.49
2022-09-14T13:03:21.447Z,18.63
2022-09-14T13:05:51.032Z,18.88
2022-09-14T13:08:22.336Z,18.62
2022-09-14T13:10:51.568Z,18.79
2022-09-14T13:13:25.817Z,18.75
2022-09-14T13:15:55.822Z,18.96
2022-09-14T13:18:30.169Z,19.10
2022-09-14T13:20:59.359Z,19.04
2022-09-14T13:23:31.429Z,19.45
2022-09-14T13:26:00.222Z,19.46
2022-09-14T13:28:31.168Z,19.22
2022-09-14T13:31:00.639Z,19.43
2022-09-14T13:33:29.949Z,19.54
2022-09-14T13:36:00.142Z,19.34
2022-09-14T13:38:36.630Z,19.41
2022-09-14T13:41:09.361Z,19.53
2022-09-14T13:43:37.954Z,19.49
2022-09-14T13:46:08.084Z,19.71
2022-09-14T13:48:37.671Z,19.62
2022-09-14T13:51:06.644Z,19.77
2022-09-14T13:53:45.533Z,19.82
2022-09-14T13:56:21.798Z,19.76
2022-09-14T13:58:51.797Z,19.44
2022-09-14T14:01:39.605Z,19.33
2022-09-14T14:04:25.473Z,19.46
2022-09-14T14:07:05.889Z,19.62
2022-09-14T14:09:38.991Z,19.31
2022-09-14T14:12:07.391Z,19.45
2022-09-14T14:14:35.688Z,19.43
2022-09-14T14:17:21.392Z,19.61
2022-09-14T14:19:54.268Z,19.64
2022-09-14T14:22:31.634Z,19.78
2022-09-14T14:25:15.783Z,19.65
2022-09-14T14:27:46.082Z,19.78
2022-09-14T14:30:21.439Z,19.74
2022-09-14T14:32:53.363Z,19.67
2022-09-14T14:35:23.619Z,19.59
2022-09-14T14:37:52.146Z,19.76
2022-09-14T14:40:20.809Z,19.57
2022-09-14T14:42:49.803Z,19.30
2022-09-14T14:45:22.325Z,19.36
2022-09-14T14:47:50.634Z,19.14
2022-09-14T14:50:21.903Z,19.08
2022-09-14T14:52:51.636Z,19.06
2022-09-14T14:55:22.949Z,19.22
2022-09-14T14:57:51.569Z,19.41
2022-09-14T15:00:21.375Z,19.13
2022-09-14T15:02:50.230Z,19.21
2022-09-14T15:05:19.152Z,19.34
2022-09-14T15:07:49.970Z,19.16
2022-09-14T15:10:18.630Z,18.97
2022-09-14T15:12:47.165Z,19.23
2022-09-14T15:15:16.831Z,19.34
2022-09-14T15:17:45.429Z,19.39
2022-09-14T15:20:14.424Z,19.23
2022-09-14T15:22:42.726Z,19.24
2022-09-14T15:25:12.087Z,18.99
2022-09-14T15:27:40.896Z,18.95
2022-09-14T15:30:09.879Z,19.19
2022-09-14T15:32:38.617Z,19.19
2022-09-14T15:35:07.749Z,19.10
2022-09-14T15:37:36.196Z,19.09
2022-09-14T15:40:05.217Z,19.09
2022-09-14T15:42:33.624Z,18.93
2022-09-14T15:45:01.931Z,19.06
2022-09-14T15:47:35.502Z,19.32
2022-09-14T15:50:05.544Z,19.49
2022-09-14T15:52:37.885Z,19.53
2022-09-14T15:55:07.060Z,19.66
2022-09-14T15:57:35.880Z,19.81
2022-09-14T16:00:09.229Z,19.88
2022-09-14T16:02:37.588Z,19.86
2022-09-14T16:05:06.153Z,19.90
2022-09-14T16:07:34.400Z,19.80
2022-09-14T16:10:02.695Z,19.76
2022-09-14T16:12:31.021Z,19.73
2022-09-14T16:14:59.800Z,19.79
2022-09-14T16:17:28.085Z,19.73
2022-09-14T16:19:56.486Z,19.70
2022-09-14T16:22:25.203Z,19.79
2022-09-14T16:24:53.492Z,19.95
2022-09-14T16:27:21.781Z,20.16
2022-09-14T16:29:50.107Z,20.20
2022-09-14T16:32:18.409Z,20.24
2022-09-14T16:34:46.705Z,20.30
2022-09-14T16:37:15.571Z,20.35
2022-09-14T16:39:44.132Z,20.34
2022-09-14T16:42:12.472Z,20.40
2022-09-14T16:44:40.755Z,20.38
2022-09-14T16:47:09.053Z,20.27
2022-09-14T16:49:39.265Z,20.38
2022-09-14T16:52:07.576Z,20.18
2022-09-14T16:54:35.873Z,20.43
2022-09-14T16:57:04.179Z,20.60
2022-09-14T16:59:32.820Z,20.35
2022-09-14T17:02:01.297Z,20.05
2022-09-14T17:04:29.642Z,19.89
2022-09-14T17:06:57.964Z,19.79
2022-09-14T17:09:27.650Z,19.71
2022-09-14T17:11:56.845Z,19.67
2022-09-14T17:14:26.875Z,19.53
2022-09-14T17:16:55.293Z,19.47
2022-09-14T17:19:23.751Z,19.57
2022-09-14T17:21:52.192Z,19.74
2022-09-14T17:24:21.004Z,19.85
2022-09-14T17:26:49.921Z,20.01
2022-09-14T17:29:18.476Z,19.97
2022-09-14T17:31:46.864Z,19.74
2022-09-14T17:34:16.827Z,20.01
2022-09-14T17:36:45.403Z,20.01
2022-09-14T17:39:15.391Z,19.99
2022-09-14T17:41:44.216Z,20.17
2022-09-14T17:44:13.321Z,20.31
2022-09-14T17:46:51.199Z,20.22
2022-09-14T17:49:21.372Z,20.05
2022-09-14T17:51:50.467Z,20.04
2022-09-14T17:54:19.391Z,20.00
2022-09-14T17:56:48.048Z,19.73
2022-09-14T17:59:17.695Z,19.51
2022-09-14T18:01:46.157Z,19.51
2022-09-14T18:04:15.591Z,19.44
2022-09-14T18:06:45.304Z,19.75
2022-09-14T18:09:15.437Z,19.79
2022-09-14T18:11:44.174Z,19.75
2022-09-14T18:14:13.534Z,19.92
2022-09-14T18:16:42.422Z,20.11
2022-09-14T18:19:12.458Z,20.21
2022-09-14T18:21:42.365Z,20.14
2022-09-14T18:24:11.555Z,20.16
2022-09-14T18:26:39.904Z,20.16
2022-09-14T18:29:08.225Z,20.16
2022-09-14T18:31:36.786Z,20.15
2022-09-14T18:34:05.070Z,20.18
2022-09-14T18:36:33.341Z,20.18
2022-09-14T18:39:02.147Z,20.22
2022-09-14T18:41:31.311Z,20.25
2022-09-14T18:44:00.023Z,20.25
2022-09-14T18:46:28.807Z,20.30
2022-09-14T18:48:58.644Z,20.28
2022-09-14T18:51:28.985Z,20.29
2022-09-14T18:54:03.521Z,20.19
2022-09-14T18:56:34.936Z,20.00
2022-09-14T18:59:04.065Z,19.88
2022-09-14T19:01:35.918Z,19.92
2022-09-14T19:04:05.338Z,19.96
2022-09-14T19:06:34.319Z,19.97
2022-09-14T19:09:03.058Z,19.88
2022-09-14T19:11:31.754Z,19.87
2022-09-14T19:14:01.572Z,19.76
2022-09-14T19:16:30.183Z,19.71
2022-09-14T19:18:58.601Z,19.63
2022-09-14T19:21:28.073Z,19.69
2022-09-14T19:24:02.659Z,19.73
2022-09-14T19:26:33.160Z,19.74
2022-09-14T19:29:03.350Z,19.59
2022-09-14T19:31:33.430Z,19.49
2022-09-14T19:34:02.608Z,19.32
2022-09-14T19:36:31.372Z,19.29
2022-09-14T19:39:01.908Z,19.18
2022-09-14T19:41:31.374Z,19.10
2022-09-14T19:44:00.241Z,19.10
2022-09-14T19:46:30.909Z,19.25
2022-09-14T19:48:59.524Z,19.33
2022-09-14T19:51:28.961Z,19.35
2022-09-14T19:53:59.434Z,19.44
2022-09-14T19:56:29.112Z,19.46
2022-09-14T19:58:58.518Z,19.45
2022-09-14T20:01:27.924Z,19.36
2022-09-14T20:03:56.501Z,19.32
2022-09-14T20:06:26.569Z,19.15
2022-09-14T20:09:04.041Z,19.12
2022-09-14T20:11:33.570Z,19.07
2022-09-14T20:14:02.582Z,18.99
2022-09-14T20:16:35.679Z,18.85
2022-09-14T20:19:09.924Z,18.77
2022-09-14T20:21:38.656Z,18.75
2022-09-14T20:24:17.166Z,18.84
2022-09-14T20:26:46.907Z,18.88
2022-09-14T20:29:15.780Z,18.92
2022-09-14T20:31:44.597Z,18.95
2022-09-14T20:34:13.293Z,18.91
2022-09-14T20:36:41.569Z,18.82
2022-09-14T20:39:10.079Z,18.81
2022-09-14T20:41:38.765Z,18.87
2022-09-14T20:44:07.152Z,18.94
2022-09-14T20:46:38.473Z,18.93
2022-09-14T20:49:08.621Z,19.05
2022-09-14T20:51:37.176Z,19.11
2022-09-14T20:54:05.964Z,19.17
2022-09-14T20:56:34.751Z,19.21
2022-09-14T20:59:04.567Z,19.25
2022-09-14T21:01:34.704Z,19.23
2022-09-14T21:04:05.118Z,19.19
2022-09-14T21:06:35.182Z,19.25
2022-09-14T21:09:04.234Z,19.24
2022-09-14T21:11:32.608Z,19.05
2022-09-14T21:14:00.884Z,18.94
2022-09-14T21:16:31.235Z,18.98
2022-09-14T21:19:01.431Z,18.97
2022-09-14T21:21:30.148Z,18.96
2022-09-14T21:23:59.049Z,18.98
2022-09-14T21:26:29.150Z,18.88
2022-09-14T21:28:58.545Z,18.88
2022-09-14T21:31:28.575Z,18.92
2022-09-14T21:34:01.752Z,18.98
2022-09-14T21:36:34.593Z,19.08
2022-09-14T21:39:05.282Z,19.19
2022-09-14T21:41:33.618Z,19.21
2022-09-14T21:44:02.037Z,19.15
2022-09-14T21:46:30.382Z,19.13
2022-09-14T21:48:58.651Z,18.94
2022-09-14T21:51:28.209Z,18.95
2022-09-14T21:54:01.176Z,19.03
2022-09-14T21:56:30.463Z,19.05
2022-09-14T21:58:59.785Z,19.11
2022-09-14T22:01:28.946Z,19.01
2022-09-14T22:03:58.178Z,18.97
2022-09-14T22:06:27.815Z,19.02
2022-09-14T22:08:57.513Z,19.00
2022-09-14T22:11:26.932Z,19.09
2022-09-14T22:13:56.523Z,19.11
2022-09-14T22:16:25.892Z,19.24
2022-09-14T22:18:58.183Z,19.30
2022-09-14T22:21:27.816Z,19.22
2022-09-14T22:23:58.398Z,19.33
2022-09-14T22:26:28.496Z,19.15
2022-09-14T22:28:57.617Z,19.03
2022-09-14T22:31:26.615Z,19.02
2022-09-14T22:33:56.101Z,18.94
2022-09-14T22:36:25.705Z,18.93
2022-09-14T22:38:58.730Z,18.90
2022-09-14T22:41:28.191Z,18.93
2022-09-14T22:43:56.483Z,18.94
2022-09-14T22:46:25.094Z,18.89
2022-09-14T22:48:53.497Z,18.91
2022-09-14T22:51:24.155Z,19.13
2022-09-14T22:53:52.875Z,19.30
2022-09-14T22:56:23.086Z,19.31
2022-09-14T22:58:51.363Z,19.26
2022-09-14T23:01:21.860Z,19.35
2022-09-14T23:03:54.558Z,19.35
2022-09-14T23:06:34.008Z,19.27
2022-09-14T23:09:02.487Z,19.19
2022-09-14T23:11:31.017Z,19.23
2022-09-14T23:13:59.516Z,19.22
2022-09-14T23:16:29.342Z,19.19
2022-09-14T23:18:59.187Z,19.25
2022-09-14T23:21:28.335Z,19.34
2022-09-14T23:23:58.075Z,19.44
2022-09-14T23:26:26.812Z,19.44
2022-09-14T23:28:56.975Z,19.46
2022-09-14T23:31:25.993Z,19.51
2022-09-14T23:33:55.011Z,19.41
2022-09-14T23:36:23.727Z,19.46
2022-09-14T23:38:52.377Z,19.54
2022-09-14T23:41:21.535Z,19.56
2022-09-14T23:43:49.936Z,19.55
2022-09-14T23:46:18.509Z,19.61
2022-09-14T23:48:47.222Z,19.58
2022-09-14T23:51:16.135Z,19.61
2022-09-14T23:53:44.617Z,19.60
2022-09-14T23:56:13.512Z,19.54
2022-09-14T23:58:42.541Z,19.46
